<?xml version="1.0" encoding="UTF-8" standalone="no" ?>
<gpx xmlns="http://www.topografix.com/GPX/1/1" xmlns:xsi="http://www.w3.org/2001/XMLSchema-instance" xsi:schemaLocation="http://www.topografix.com/GPX/1/1 http://www.topografix.com/GPX/1/1/gpx.xsd" version="1.1" creator="VisuGPX - https://www.visugpx.com">
  <metadata>
    <name>3 batailles Boucle N°2</name>
  </metadata>
  <trk>
    <name><![CDATA[3 batailles Boucle N°2]]></name>
    <extensions>
      <line xmlns="http://www.topografix.com/GPX/gpx_style/0/2">
        <color>07e407</color>
        <width>4</width>
      </line>
    </extensions>
    <trkseg>
      <trkpt lat="46.69873" lon="0.42886">
        <ele>71</ele>
        <time>2022-07-11T07:20:01Z</time>
      </trkpt>
      <trkpt lat="46.69436" lon="0.43344">
        <ele>100</ele>
        <time>2022-07-11T07:27:12Z</time>
      </trkpt>
      <trkpt lat="46.69347" lon="0.43441">
        <ele>103</ele>
        <time>2022-07-11T07:28:41Z</time>
      </trkpt>
      <trkpt lat="46.6924" lon="0.43495">
        <ele>104</ele>
        <time>2022-07-11T07:30:12Z</time>
      </trkpt>
      <trkpt lat="46.69086" lon="0.43711">
        <ele>106</ele>
        <time>2022-07-11T07:33:03Z</time>
      </trkpt>
      <trkpt lat="46.68672" lon="0.4332">
        <ele>99</ele>
        <time>2022-07-11T07:39:38Z</time>
      </trkpt>
      <trkpt lat="46.68152" lon="0.42761">
        <ele>88</ele>
        <time>2022-07-11T07:48:15Z</time>
      </trkpt>
      <trkpt lat="46.67546" lon="0.42103">
        <ele>107</ele>
        <time>2022-07-11T07:58:20Z</time>
      </trkpt>
      <trkpt lat="46.6729" lon="0.41769">
        <ele>110</ele>
        <time>2022-07-11T08:02:55Z</time>
      </trkpt>
      <trkpt lat="46.66826" lon="0.41345">
        <ele>101.6</ele>
        <time>2022-07-11T08:09:50Z</time>
      </trkpt>
      <trkpt lat="46.66717" lon="0.42675">
        <ele>107.8</ele>
      </trkpt>
      <trkpt lat="46.66694" lon="0.42774">
        <ele>109</ele>
        <time>2022-07-11T08:22:52Z</time>
      </trkpt>
      <trkpt lat="46.66898" lon="0.42889">
        <ele>110</ele>
        <time>2022-07-11T08:25:47Z</time>
      </trkpt>
      <trkpt lat="46.66998" lon="0.42968">
        <ele>110</ele>
        <time>2022-07-11T08:27:19Z</time>
      </trkpt>
      <trkpt lat="46.67109" lon="0.42962">
        <ele>106</ele>
        <time>2022-07-11T08:28:47Z</time>
      </trkpt>
      <trkpt lat="46.6733" lon="0.43085">
        <ele>100</ele>
        <time>2022-07-11T08:31:57Z</time>
      </trkpt>
      <trkpt lat="46.67851" lon="0.43379">
        <ele>98</ele>
        <time>2022-07-11T08:39:24Z</time>
      </trkpt>
      <trkpt lat="46.6764" lon="0.43911">
        <ele>109</ele>
        <time>2022-07-11T08:45:02Z</time>
      </trkpt>
      <trkpt lat="46.67531" lon="0.44333">
        <ele>116</ele>
        <time>2022-07-11T08:49:10Z</time>
      </trkpt>
      <trkpt lat="46.6745" lon="0.44816">
        <ele>114</ele>
        <time>2022-07-11T08:53:43Z</time>
      </trkpt>
      <trkpt lat="46.6764" lon="0.45726">
        <ele>104</ele>
        <time>2022-07-11T09:02:25Z</time>
      </trkpt>
      <trkpt lat="46.67924" lon="0.45842">
        <ele>109</ele>
      </trkpt>
      <trkpt lat="46.68171" lon="0.46027">
        <ele>100</ele>
      </trkpt>
      <trkpt lat="46.68189" lon="0.46104">
        <ele>98.2</ele>
        <time>2022-07-11T09:07:06Z</time>
      </trkpt>
      <trkpt lat="46.6846" lon="0.45975">
        <ele>95.3</ele>
      </trkpt>
      <trkpt lat="46.6869" lon="0.46053">
        <ele>92</ele>
        <time>2022-07-11T09:08:15Z</time>
      </trkpt>
      <trkpt lat="46.68807" lon="0.4628">
        <ele>87.2</ele>
        <time>2022-07-11T09:11:00Z</time>
      </trkpt>
      <trkpt lat="46.69174" lon="0.46597">
        <ele>118</ele>
        <time>2022-07-11T09:49:24Z</time>
      </trkpt>
      <trkpt lat="46.69234" lon="0.46285">
        <ele>103</ele>
        <time>2022-07-11T09:52:22Z</time>
      </trkpt>
      <trkpt lat="46.69228" lon="0.46215">
        <ele>101</ele>
        <time>2022-07-11T09:53:01Z</time>
      </trkpt>
      <trkpt lat="46.69316" lon="0.46127">
        <ele>101</ele>
        <time>2022-07-11T09:54:27Z</time>
      </trkpt>
      <trkpt lat="46.69739" lon="0.45862">
        <ele>83</ele>
        <time>2022-07-11T10:00:35Z</time>
      </trkpt>
      <trkpt lat="46.69854" lon="0.45854">
        <ele>78</ele>
        <time>2022-07-11T10:02:07Z</time>
      </trkpt>
      <trkpt lat="46.6999" lon="0.45866">
        <ele>77</ele>
        <time>2022-07-11T10:03:56Z</time>
      </trkpt>
      <trkpt lat="46.70115" lon="0.45926">
        <ele>78</ele>
        <time>2022-07-11T10:05:42Z</time>
      </trkpt>
      <trkpt lat="46.70267" lon="0.45951">
        <ele>80</ele>
        <time>2022-07-11T10:07:44Z</time>
      </trkpt>
      <trkpt lat="46.70454" lon="0.45911">
        <ele>79</ele>
        <time>2022-07-11T10:10:16Z</time>
      </trkpt>
      <trkpt lat="46.70642" lon="0.45875">
        <ele>75</ele>
        <time>2022-07-11T10:12:47Z</time>
      </trkpt>
      <trkpt lat="46.70776" lon="0.45857">
        <ele>77</ele>
        <time>2022-07-11T10:14:35Z</time>
      </trkpt>
      <trkpt lat="46.71043" lon="0.45726">
        <ele>75</ele>
        <time>2022-07-11T10:18:21Z</time>
      </trkpt>
      <trkpt lat="46.71245" lon="0.45675">
        <ele>71</ele>
        <time>2022-07-11T10:21:05Z</time>
      </trkpt>
      <trkpt lat="46.70789" lon="0.45271">
        <ele>73</ele>
        <time>2022-07-11T10:28:12Z</time>
      </trkpt>
      <trkpt lat="46.70909" lon="0.45014">
        <ele>76</ele>
        <time>2022-07-11T10:31:03Z</time>
      </trkpt>
      <trkpt lat="46.70793" lon="0.44813">
        <ele>81</ele>
        <time>2022-07-11T10:33:27Z</time>
      </trkpt>
      <trkpt lat="46.70716" lon="0.44625">
        <ele>92</ele>
        <time>2022-07-11T10:35:27Z</time>
      </trkpt>
      <trkpt lat="46.70862" lon="0.44446">
        <ele>97</ele>
        <time>2022-07-11T10:38:00Z</time>
      </trkpt>
      <trkpt lat="46.70818" lon="0.44406">
        <ele>98</ele>
        <time>2022-07-11T10:38:42Z</time>
      </trkpt>
      <trkpt lat="46.70631" lon="0.44355">
        <ele>98</ele>
        <time>2022-07-11T10:41:14Z</time>
      </trkpt>
      <trkpt lat="46.70485" lon="0.44345">
        <ele>98</ele>
        <time>2022-07-11T10:43:11Z</time>
      </trkpt>
      <trkpt lat="46.70396" lon="0.44291">
        <ele>98</ele>
        <time>2022-07-11T10:44:28Z</time>
      </trkpt>
      <trkpt lat="46.70302" lon="0.44197">
        <ele>99</ele>
        <time>2022-07-11T10:45:59Z</time>
      </trkpt>
      <trkpt lat="46.7009" lon="0.44133">
        <ele>100</ele>
        <time>2022-07-11T10:48:53Z</time>
      </trkpt>
      <trkpt lat="46.6997" lon="0.44053">
        <ele>102</ele>
        <time>2022-07-11T10:50:38Z</time>
      </trkpt>
      <trkpt lat="46.69821" lon="0.44006">
        <ele>98</ele>
        <time>2022-07-11T10:52:40Z</time>
      </trkpt>
      <trkpt lat="46.69614" lon="0.43671">
        <ele>99</ele>
        <time>2022-07-11T10:56:48Z</time>
      </trkpt>
      <trkpt lat="46.69929" lon="0.43211">
        <ele>99</ele>
        <time>2022-07-11T11:02:45Z</time>
      </trkpt>
      <trkpt lat="46.69873" lon="0.42886">
        <ele>71</ele>
        <time>2022-07-11T11:05:49Z</time>
      </trkpt>
    </trkseg>
  </trk>
</gpx>